sensor_id;sensor_type;location;lat;lon;timestamp;P1;durP1;ratioP1;P2;durP2;ratioP2
52934;SDS011;38802;50.198;19.796;2023-02-12T00:01:31;24.30;;;16.70;;
52934;SDS011;38802;50.198;19.796;2023-02-12T00:04:00;31.10;;;17.90;;
52934;SDS011;38802;50.198;19.796;2023-02-12T00:06:28;24.70;;;16.90;;
52934;SDS011;38802;50.198;19.796;2023-02-12T00:08:56;21.40;;;16.50;;
52934;SDS011;38802;50.198;19.796;2023-02-12T00:11:26;20.70;;;15.20;;
52934;SDS011;38802;50.198;19.796;2023-02-12T00:17:19;25.40;;;16.30;;
52934;SDS011;38802;50.198;19.796;2023-02-12T00:19:47;22.40;;;15.50;;
52934;SDS011;38802;50.198;19.796;2023-02-12T00:22:15;21.20;;;14.20;;
52934;SDS011;38802;50.198;19.796;2023-02-12T00:24:43;20.00;;;14.70;;
52934;SDS011;38802;50.198;19.796;2023-02-12T00:27:11;21.80;;;13.60;;
52934;SDS011;38802;50.198;19.796;2023-02-12T00:29:40;17.10;;;13.80;;
52934;SDS011;38802;50.198;19.796;2023-02-12T00:32:08;20.80;;;14.10;;
52934;SDS011;38802;50.198;19.796;2023-02-12T00:34:36;18.50;;;13.90;;
52934;SDS011;38802;50.198;19.796;2023-02-12T00:37:04;19.30;;;14.00;;
52934;SDS011;38802;50.198;19.796;2023-02-12T00:39:32;19.80;;;15.60;;
52934;SDS011;38802;50.198;19.796;2023-02-12T00:42:03;17.00;;;13.90;;
52934;SDS011;38802;50.198;19.796;2023-02-12T00:44:31;19.90;;;13.90;;
52934;SDS011;38802;50.198;19.796;2023-02-12T00:47:03;21.00;;;15.20;;
52934;SDS011;38802;50.198;19.796;2023-02-12T00:49:32;18.30;;;14.10;;
52934;SDS011;38802;50.198;19.796;2023-02-12T00:52:01;22.60;;;15.00;;
52934;SDS011;38802;50.198;19.796;2023-02-12T00:54:30;19.50;;;13.80;;
52934;SDS011;38802;50.198;19.796;2023-02-12T00:56:59;18.60;;;14.70;;
52934;SDS011;38802;50.198;19.796;2023-02-12T00:59:29;15.60;;;13.80;;
52934;SDS011;38802;50.198;19.796;2023-02-12T01:01:57;11.40;;;9.90;;
52934;SDS011;38802;50.198;19.796;2023-02-12T01:04:25;14.40;;;12.80;;
52934;SDS011;38802;50.198;19.796;2023-02-12T01:06:55;14.20;;;12.70;;
52934;SDS011;38802;50.198;19.796;2023-02-12T01:09:23;11.20;;;9.90;;
52934;SDS011;38802;50.198;19.796;2023-02-12T01:11:51;11.80;;;10.60;;
52934;SDS011;38802;50.198;19.796;2023-02-12T01:14:19;12.10;;;10.80;;
52934;SDS011;38802;50.198;19.796;2023-02-12T01:16:47;11.70;;;10.10;;
52934;SDS011;38802;50.198;19.796;2023-02-12T01:19:15;12.30;;;11.10;;
52934;SDS011;38802;50.198;19.796;2023-02-12T01:21:43;12.70;;;9.90;;
52934;SDS011;38802;50.198;19.796;2023-02-12T01:24:11;13.40;;;10.00;;
52934;SDS011;38802;50.198;19.796;2023-02-12T01:26:39;12.70;;;9.60;;
52934;SDS011;38802;50.198;19.796;2023-02-12T01:29:07;10.30;;;9.40;;
52934;SDS011;38802;50.198;19.796;2023-02-12T01:31:36;11.70;;;10.50;;
52934;SDS011;38802;50.198;19.796;2023-02-12T01:34:06;12.30;;;10.20;;
52934;SDS011;38802;50.198;19.796;2023-02-12T01:36:34;13.10;;;11.90;;
52934;SDS011;38802;50.198;19.796;2023-02-12T01:39:03;15.70;;;10.90;;
52934;SDS011;38802;50.198;19.796;2023-02-12T01:41:33;13.40;;;10.90;;
52934;SDS011;38802;50.198;19.796;2023-02-12T01:46:39;12.40;;;11.10;;
52934;SDS011;38802;50.198;19.796;2023-02-12T01:49:10;11.50;;;10.30;;
52934;SDS011;38802;50.198;19.796;2023-02-12T01:51:43;11.70;;;10.40;;
52934;SDS011;38802;50.198;19.796;2023-02-12T01:54:13;10.00;;;9.00;;
52934;SDS011;38802;50.198;19.796;2023-02-12T01:56:44;13.70;;;11.20;;
52934;SDS011;38802;50.198;19.796;2023-02-12T01:59:12;15.10;;;12.30;;
52934;SDS011;38802;50.198;19.796;2023-02-12T02:01:40;12.60;;;11.40;;
52934;SDS011;38802;50.198;19.796;2023-02-12T02:04:09;14.60;;;11.50;;
52934;SDS011;38802;50.198;19.796;2023-02-12T02:07:04;15.90;;;12.00;;
52934;SDS011;38802;50.198;19.796;2023-02-12T02:09:33;11.90;;;10.20;;
52934;SDS011;38802;50.198;19.796;2023-02-12T02:12:03;12.40;;;10.00;;
52934;SDS011;38802;50.198;19.796;2023-02-12T02:17:34;12.10;;;10.80;;
52934;SDS011;38802;50.198;19.796;2023-02-12T02:31:42;11.60;;;9.80;;
52934;SDS011;38802;50.198;19.796;2023-02-12T02:36:49;10.30;;;8.60;;
52934;SDS011;38802;50.198;19.796;2023-02-12T02:42:22;10.00;;;7.40;;
52934;SDS011;38802;50.198;19.796;2023-02-12T02:45:05;10.50;;;8.20;;
52934;SDS011;38802;50.198;19.796;2023-02-12T02:47:43;11.60;;;8.30;;
52934;SDS011;38802;50.198;19.796;2023-02-12T02:52:51;8.60;;;5.90;;
52934;SDS011;38802;50.198;19.796;2023-02-12T02:55:24;9.60;;;8.40;;
52934;SDS011;38802;50.198;19.796;2023-02-12T02:58:05;14.60;;;8.40;;
52934;SDS011;38802;50.198;19.796;2023-02-12T03:00:40;10.70;;;7.80;;
52934;SDS011;38802;50.198;19.796;2023-02-12T03:03:11;14.70;;;8.80;;
52934;SDS011;38802;50.198;19.796;2023-02-12T03:05:55;14.40;;;8.60;;
52934;SDS011;38802;50.198;19.796;2023-02-12T03:08:30;9.80;;;7.80;;
52934;SDS011;38802;50.198;19.796;2023-02-12T03:11:06;14.10;;;9.20;;
52934;SDS011;38802;50.198;19.796;2023-02-12T03:13:41;12.90;;;10.50;;
52934;SDS011;38802;50.198;19.796;2023-02-12T03:21:38;15.70;;;9.00;;
52934;SDS011;38802;50.198;19.796;2023-02-12T03:30:04;18.60;;;10.70;;
52934;SDS011;38802;50.198;19.796;2023-02-12T03:32:43;16.30;;;10.40;;
52934;SDS011;38802;50.198;19.796;2023-02-12T03:35:21;17.40;;;11.20;;
52934;SDS011;38802;50.198;19.796;2023-02-12T03:40:55;11.60;;;10.20;;
52934;SDS011;38802;50.198;19.796;2023-02-12T03:43:51;19.20;;;10.10;;
52934;SDS011;38802;50.198;19.796;2023-02-12T03:51:40;22.40;;;11.80;;
52934;SDS011;38802;50.198;19.796;2023-02-12T03:54:11;19.40;;;12.20;;
52934;SDS011;38802;50.198;19.796;2023-02-12T03:56:45;19.50;;;11.80;;
52934;SDS011;38802;50.198;19.796;2023-02-12T03:59:19;16.60;;;11.30;;
52934;SDS011;38802;50.198;19.796;2023-02-12T04:01:49;17.00;;;10.30;;
52934;SDS011;38802;50.198;19.796;2023-02-12T04:04:19;16.50;;;11.30;;
52934;SDS011;38802;50.198;19.796;2023-02-12T04:06:48;18.60;;;12.10;;
52934;SDS011;38802;50.198;19.796;2023-02-12T04:09:17;17.90;;;10.70;;
52934;SDS011;38802;50.198;19.796;2023-02-12T04:17:40;18.70;;;10.60;;
52934;SDS011;38802;50.198;19.796;2023-02-12T04:26:01;18.30;;;10.70;;
52934;SDS011;38802;50.198;19.796;2023-02-12T04:37:18;13.70;;;9.90;;
52934;SDS011;38802;50.198;19.796;2023-02-12T04:39:50;15.10;;;9.80;;
52934;SDS011;38802;50.198;19.796;2023-02-12T04:42:20;12.60;;;9.40;;
52934;SDS011;38802;50.198;19.796;2023-02-12T04:44:48;11.80;;;8.50;;
52934;SDS011;38802;50.198;19.796;2023-02-12T04:47:16;15.90;;;9.80;;
52934;SDS011;38802;50.198;19.796;2023-02-12T04:49:44;17.40;;;8.70;;
52934;SDS011;38802;50.198;19.796;2023-02-12T04:52:12;12.60;;;7.20;;
52934;SDS011;38802;50.198;19.796;2023-02-12T04:54:40;13.30;;;7.00;;
52934;SDS011;38802;50.198;19.796;2023-02-12T04:57:08;11.90;;;7.10;;
52934;SDS011;38802;50.198;19.796;2023-02-12T04:59:36;8.60;;;7.50;;
52934;SDS011;38802;50.198;19.796;2023-02-12T05:02:04;12.00;;;7.40;;
52934;SDS011;38802;50.198;19.796;2023-02-12T05:04:32;12.70;;;7.00;;
52934;SDS011;38802;50.198;19.796;2023-02-12T05:07:00;14.10;;;7.70;;
52934;SDS011;38802;50.198;19.796;2023-02-12T05:09:28;12.10;;;6.60;;
52934;SDS011;38802;50.198;19.796;2023-02-12T05:11:56;10.30;;;6.90;;
52934;SDS011;38802;50.198;19.796;2023-02-12T05:14:24;13.80;;;6.70;;
52934;SDS011;38802;50.198;19.796;2023-02-12T05:16:52;12.20;;;7.40;;
52934;SDS011;38802;50.198;19.796;2023-02-12T05:19:20;13.80;;;6.80;;
52934;SDS011;38802;50.198;19.796;2023-02-12T05:21:49;8.30;;;6.80;;
52934;SDS011;38802;50.198;19.796;2023-02-12T05:24:19;8.30;;;6.40;;
52934;SDS011;38802;50.198;19.796;2023-02-12T05:26:47;12.90;;;7.30;;
52934;SDS011;38802;50.198;19.796;2023-02-12T05:29:17;12.00;;;7.00;;
52934;SDS011;38802;50.198;19.796;2023-02-12T05:31:45;11.70;;;6.90;;
52934;SDS011;38802;50.198;19.796;2023-02-12T05:34:14;10.50;;;6.60;;
52934;SDS011;38802;50.198;19.796;2023-02-12T05:36:42;11.50;;;7.10;;
52934;SDS011;38802;50.198;19.796;2023-02-12T05:39:10;12.00;;;7.30;;
52934;SDS011;38802;50.198;19.796;2023-02-12T05:41:38;10.80;;;7.60;;
52934;SDS011;38802;50.198;19.796;2023-02-12T05:44:06;13.40;;;7.90;;
52934;SDS011;38802;50.198;19.796;2023-02-12T05:46:34;13.30;;;7.00;;
52934;SDS011;38802;50.198;19.796;2023-02-12T05:49:02;10.60;;;7.20;;
52934;SDS011;38802;50.198;19.796;2023-02-12T05:51:31;14.00;;;7.80;;
52934;SDS011;38802;50.198;19.796;2023-02-12T05:54:01;17.80;;;8.30;;
52934;SDS011;38802;50.198;19.796;2023-02-12T05:56:34;10.50;;;7.40;;
52934;SDS011;38802;50.198;19.796;2023-02-12T05:59:05;11.60;;;7.80;;
52934;SDS011;38802;50.198;19.796;2023-02-12T06:01:39;8.60;;;7.50;;
52934;SDS011;38802;50.198;19.796;2023-02-12T06:04:12;11.50;;;8.10;;
52934;SDS011;38802;50.198;19.796;2023-02-12T06:06:42;16.10;;;8.30;;
52934;SDS011;38802;50.198;19.796;2023-02-12T06:09:11;9.30;;;7.00;;
52934;SDS011;38802;50.198;19.796;2023-02-12T06:11:40;12.60;;;7.30;;
52934;SDS011;38802;50.198;19.796;2023-02-12T06:14:10;9.20;;;7.40;;
52934;SDS011;38802;50.198;19.796;2023-02-12T06:16:43;13.00;;;8.10;;
52934;SDS011;38802;50.198;19.796;2023-02-12T06:19:15;11.40;;;7.90;;
52934;SDS011;38802;50.198;19.796;2023-02-12T06:21:44;14.30;;;7.50;;
52934;SDS011;38802;50.198;19.796;2023-02-12T06:24:13;10.60;;;8.70;;
52934;SDS011;38802;50.198;19.796;2023-02-12T06:26:43;11.90;;;7.30;;
52934;SDS011;38802;50.198;19.796;2023-02-12T06:29:12;12.50;;;8.20;;
52934;SDS011;38802;50.198;19.796;2023-02-12T06:31:40;15.00;;;7.90;;
52934;SDS011;38802;50.198;19.796;2023-02-12T06:34:10;14.20;;;8.40;;
52934;SDS011;38802;50.198;19.796;2023-02-12T06:36:40;13.10;;;8.00;;
52934;SDS011;38802;50.198;19.796;2023-02-12T06:39:12;10.50;;;7.00;;
52934;SDS011;38802;50.198;19.796;2023-02-12T06:41:41;6.80;;;5.70;;
52934;SDS011;38802;50.198;19.796;2023-02-12T06:44:09;6.70;;;4.70;;
52934;SDS011;38802;50.198;19.796;2023-02-12T06:46:39;10.00;;;5.00;;
52934;SDS011;38802;50.198;19.796;2023-02-12T06:49:09;9.20;;;6.00;;
52934;SDS011;38802;50.198;19.796;2023-02-12T06:51:39;10.90;;;5.80;;
52934;SDS011;38802;50.198;19.796;2023-02-12T06:54:15;12.80;;;5.80;;
52934;SDS011;38802;50.198;19.796;2023-02-12T06:56:44;6.80;;;5.40;;
52934;SDS011;38802;50.198;19.796;2023-02-12T06:59:14;7.80;;;5.40;;
52934;SDS011;38802;50.198;19.796;2023-02-12T07:01:43;7.70;;;5.70;;
52934;SDS011;38802;50.198;19.796;2023-02-12T07:04:11;9.70;;;6.20;;
52934;SDS011;38802;50.198;19.796;2023-02-12T07:06:39;10.40;;;6.50;;
52934;SDS011;38802;50.198;19.796;2023-02-12T07:09:08;9.70;;;7.20;;
52934;SDS011;38802;50.198;19.796;2023-02-12T07:11:36;11.10;;;6.90;;
52934;SDS011;38802;50.198;19.796;2023-02-12T07:14:05;8.60;;;6.80;;
52934;SDS011;38802;50.198;19.796;2023-02-12T07:16:34;14.10;;;10.10;;
52934;SDS011;38802;50.198;19.796;2023-02-12T07:19:02;13.70;;;9.40;;
52934;SDS011;38802;50.198;19.796;2023-02-12T07:21:30;10.80;;;8.90;;
52934;SDS011;38802;50.198;19.796;2023-02-12T07:23:59;11.80;;;7.80;;
52934;SDS011;38802;50.198;19.796;2023-02-12T07:26:27;9.90;;;7.20;;
52934;SDS011;38802;50.198;19.796;2023-02-12T07:28:56;7.80;;;7.10;;
52934;SDS011;38802;50.198;19.796;2023-02-12T07:31:27;7.10;;;6.50;;
52934;SDS011;38802;50.198;19.796;2023-02-12T07:33:56;7.40;;;6.40;;
52934;SDS011;38802;50.198;19.796;2023-02-12T07:36:26;12.20;;;7.20;;
52934;SDS011;38802;50.198;19.796;2023-02-12T07:38:56;8.50;;;7.70;;
52934;SDS011;38802;50.198;19.796;2023-02-12T07:41:25;6.30;;;5.80;;
52934;SDS011;38802;50.198;19.796;2023-02-12T07:43:58;12.30;;;8.00;;
52934;SDS011;38802;50.198;19.796;2023-02-12T07:46:31;8.40;;;7.20;;
52934;SDS011;38802;50.198;19.796;2023-02-12T07:49:20;11.60;;;8.90;;
52934;SDS011;38802;50.198;19.796;2023-02-12T07:51:49;7.60;;;6.60;;
52934;SDS011;38802;50.198;19.796;2023-02-12T07:54:17;7.70;;;6.80;;
52934;SDS011;38802;50.198;19.796;2023-02-12T07:56:45;9.40;;;6.90;;
52934;SDS011;38802;50.198;19.796;2023-02-12T07:59:15;9.30;;;5.30;;
52934;SDS011;38802;50.198;19.796;2023-02-12T08:01:45;5.90;;;5.40;;
52934;SDS011;38802;50.198;19.796;2023-02-12T08:04:18;9.60;;;8.70;;
52934;SDS011;38802;50.198;19.796;2023-02-12T08:06:49;15.70;;;13.90;;
52934;SDS011;38802;50.198;19.796;2023-02-12T08:09:22;17.80;;;14.60;;
52934;SDS011;38802;50.198;19.796;2023-02-12T08:11:52;9.30;;;8.40;;
52934;SDS011;38802;50.198;19.796;2023-02-12T08:14:21;10.40;;;8.20;;
52934;SDS011;38802;50.198;19.796;2023-02-12T08:16:49;12.40;;;10.70;;
52934;SDS011;38802;50.198;19.796;2023-02-12T08:19:18;9.20;;;7.40;;
52934;SDS011;38802;50.198;19.796;2023-02-12T08:21:53;8.00;;;7.10;;
52934;SDS011;38802;50.198;19.796;2023-02-12T08:24:22;7.80;;;6.40;;
52934;SDS011;38802;50.198;19.796;2023-02-12T08:26:51;9.10;;;6.90;;
52934;SDS011;38802;50.198;19.796;2023-02-12T08:29:20;5.50;;;5.00;;
52934;SDS011;38802;50.198;19.796;2023-02-12T08:31:54;5.60;;;4.80;;
52934;SDS011;38802;50.198;19.796;2023-02-12T08:34:33;4.70;;;4.10;;
52934;SDS011;38802;50.198;19.796;2023-02-12T08:37:04;4.40;;;4.10;;
52934;SDS011;38802;50.198;19.796;2023-02-12T08:39:33;4.30;;;4.10;;
52934;SDS011;38802;50.198;19.796;2023-02-12T08:42:01;4.80;;;4.40;;
52934;SDS011;38802;50.198;19.796;2023-02-12T08:44:29;7.90;;;5.10;;
52934;SDS011;38802;50.198;19.796;2023-02-12T08:46:57;5.70;;;4.70;;
52934;SDS011;38802;50.198;19.796;2023-02-12T08:49:26;6.30;;;4.50;;
52934;SDS011;38802;50.198;19.796;2023-02-12T08:51:57;6.00;;;4.10;;
52934;SDS011;38802;50.198;19.796;2023-02-12T08:54:27;6.00;;;5.10;;
52934;SDS011;38802;50.198;19.796;2023-02-12T08:56:56;6.60;;;6.00;;
52934;SDS011;38802;50.198;19.796;2023-02-12T08:59:26;5.70;;;5.10;;
52934;SDS011;38802;50.198;19.796;2023-02-12T09:01:54;6.50;;;5.80;;
52934;SDS011;38802;50.198;19.796;2023-02-12T09:04:24;8.60;;;7.10;;
52934;SDS011;38802;50.198;19.796;2023-02-12T09:06:53;7.10;;;6.30;;
52934;SDS011;38802;50.198;19.796;2023-02-12T09:09:22;8.50;;;5.30;;
52934;SDS011;38802;50.198;19.796;2023-02-12T09:11:50;6.00;;;5.20;;
52934;SDS011;38802;50.198;19.796;2023-02-12T09:14:18;6.00;;;4.60;;
52934;SDS011;38802;50.198;19.796;2023-02-12T09:16:52;4.90;;;4.50;;
52934;SDS011;38802;50.198;19.796;2023-02-12T09:19:21;5.40;;;5.00;;
52934;SDS011;38802;50.198;19.796;2023-02-12T09:21:54;8.30;;;4.70;;
52934;SDS011;38802;50.198;19.796;2023-02-12T09:24:24;4.90;;;4.50;;
52934;SDS011;38802;50.198;19.796;2023-02-12T09:26:55;5.60;;;5.20;;
52934;SDS011;38802;50.198;19.796;2023-02-12T09:29:23;5.50;;;4.70;;
52934;SDS011;38802;50.198;19.796;2023-02-12T09:31:51;5.70;;;4.00;;
52934;SDS011;38802;50.198;19.796;2023-02-12T09:34:19;4.90;;;4.50;;
52934;SDS011;38802;50.198;19.796;2023-02-12T09:36:47;6.50;;;5.70;;
52934;SDS011;38802;50.198;19.796;2023-02-12T09:39:16;5.40;;;4.90;;
52934;SDS011;38802;50.198;19.796;2023-02-12T09:44:54;6.80;;;4.60;;
52934;SDS011;38802;50.198;19.796;2023-02-12T09:50:55;7.50;;;5.10;;
52934;SDS011;38802;50.198;19.796;2023-02-12T09:53:26;5.90;;;5.40;;
52934;SDS011;38802;50.198;19.796;2023-02-12T09:55:57;7.90;;;5.50;;
52934;SDS011;38802;50.198;19.796;2023-02-12T09:58:39;5.70;;;5.10;;
52934;SDS011;38802;50.198;19.796;2023-02-12T10:01:12;5.60;;;5.10;;
52934;SDS011;38802;50.198;19.796;2023-02-12T10:03:45;5.80;;;5.00;;
52934;SDS011;38802;50.198;19.796;2023-02-12T10:06:29;7.70;;;5.50;;
52934;SDS011;38802;50.198;19.796;2023-02-12T10:09:07;6.40;;;5.80;;
52934;SDS011;38802;50.198;19.796;2023-02-12T10:14:55;6.50;;;5.10;;
52934;SDS011;38802;50.198;19.796;2023-02-12T10:17:42;8.80;;;4.90;;
52934;SDS011;38802;50.198;19.796;2023-02-12T10:25:52;5.00;;;4.40;;
52934;SDS011;38802;50.198;19.796;2023-02-12T10:28:33;5.60;;;5.10;;
52934;SDS011;38802;50.198;19.796;2023-02-12T10:31:06;6.20;;;5.00;;
52934;SDS011;38802;50.198;19.796;2023-02-12T10:33:43;5.50;;;5.00;;
52934;SDS011;38802;50.198;19.796;2023-02-12T10:38:54;6.00;;;5.50;;
52934;SDS011;38802;50.198;19.796;2023-02-12T10:41:28;7.20;;;5.00;;
52934;SDS011;38802;50.198;19.796;2023-02-12T10:43:59;7.00;;;5.80;;
52934;SDS011;38802;50.198;19.796;2023-02-12T10:46:29;6.60;;;5.80;;
52934;SDS011;38802;50.198;19.796;2023-02-12T10:48:58;6.80;;;6.10;;
52934;SDS011;38802;50.198;19.796;2023-02-12T10:54:44;6.70;;;6.10;;
52934;SDS011;38802;50.198;19.796;2023-02-12T10:59:49;7.00;;;6.40;;
52934;SDS011;38802;50.198;19.796;2023-02-12T11:04:50;6.90;;;6.00;;
52934;SDS011;38802;50.198;19.796;2023-02-12T11:07:19;5.60;;;5.20;;
52934;SDS011;38802;50.198;19.796;2023-02-12T11:09:49;6.50;;;5.90;;
52934;SDS011;38802;50.198;19.796;2023-02-12T11:12:27;6.10;;;5.50;;
52934;SDS011;38802;50.198;19.796;2023-02-12T11:17:41;6.20;;;5.50;;
52934;SDS011;38802;50.198;19.796;2023-02-12T11:22:52;5.60;;;5.00;;
52934;SDS011;38802;50.198;19.796;2023-02-12T11:25:24;5.80;;;5.30;;
52934;SDS011;38802;50.198;19.796;2023-02-12T11:27:58;5.30;;;4.80;;
52934;SDS011;38802;50.198;19.796;2023-02-12T11:30:58;6.70;;;5.90;;
52934;SDS011;38802;50.198;19.796;2023-02-12T11:35:58;6.80;;;6.20;;
52934;SDS011;38802;50.198;19.796;2023-02-12T11:38:35;10.10;;;6.40;;
52934;SDS011;38802;50.198;19.796;2023-02-12T11:41:08;6.10;;;5.60;;
52934;SDS011;38802;50.198;19.796;2023-02-12T11:46:48;6.20;;;5.70;;
52934;SDS011;38802;50.198;19.796;2023-02-12T11:49:21;7.80;;;5.80;;
52934;SDS011;38802;50.198;19.796;2023-02-12T11:51:54;6.10;;;5.50;;
52934;SDS011;38802;50.198;19.796;2023-02-12T11:54:26;7.80;;;5.80;;
52934;SDS011;38802;50.198;19.796;2023-02-12T11:56:57;8.30;;;6.50;;
52934;SDS011;38802;50.198;19.796;2023-02-12T12:05:08;7.20;;;6.10;;
52934;SDS011;38802;50.198;19.796;2023-02-12T12:07:42;7.60;;;6.40;;
52934;SDS011;38802;50.198;19.796;2023-02-12T12:10:30;7.00;;;6.40;;
52934;SDS011;38802;50.198;19.796;2023-02-12T12:13:00;7.40;;;6.70;;
52934;SDS011;38802;50.198;19.796;2023-02-12T12:15:33;8.00;;;7.30;;
52934;SDS011;38802;50.198;19.796;2023-02-12T12:21:41;7.50;;;6.40;;
52934;SDS011;38802;50.198;19.796;2023-02-12T12:24:15;9.90;;;6.50;;
52934;SDS011;38802;50.198;19.796;2023-02-12T12:26:51;11.30;;;6.60;;
52934;SDS011;38802;50.198;19.796;2023-02-12T12:32:08;12.40;;;7.40;;
52934;SDS011;38802;50.198;19.796;2023-02-12T12:34:41;8.30;;;7.50;;
52934;SDS011;38802;50.198;19.796;2023-02-12T12:37:15;10.90;;;9.60;;
52934;SDS011;38802;50.198;19.796;2023-02-12T12:42:51;11.70;;;7.80;;
52934;SDS011;38802;50.198;19.796;2023-02-12T12:45:32;9.50;;;8.30;;
52934;SDS011;38802;50.198;19.796;2023-02-12T12:53:54;10.50;;;8.90;;
52934;SDS011;38802;50.198;19.796;2023-02-12T13:02:00;15.10;;;10.40;;
52934;SDS011;38802;50.198;19.796;2023-02-12T13:10:59;17.80;;;11.70;;
52934;SDS011;38802;50.198;19.796;2023-02-12T13:16:12;21.50;;;13.10;;
52934;SDS011;38802;50.198;19.796;2023-02-12T13:29:15;31.00;;;15.30;;
52934;SDS011;38802;50.198;19.796;2023-02-12T13:31:56;24.70;;;15.40;;
52934;SDS011;38802;50.198;19.796;2023-02-12T13:34:30;31.70;;;16.70;;
52934;SDS011;38802;50.198;19.796;2023-02-12T13:37:01;27.70;;;15.10;;
52934;SDS011;38802;50.198;19.796;2023-02-12T13:42:16;26.40;;;14.90;;
52934;SDS011;38802;50.198;19.796;2023-02-12T13:48:11;27.20;;;15.60;;
52934;SDS011;38802;50.198;19.796;2023-02-12T13:50:47;32.30;;;16.50;;
52934;SDS011;38802;50.198;19.796;2023-02-12T13:56:01;28.30;;;14.90;;
52934;SDS011;38802;50.198;19.796;2023-02-12T14:03:39;26.90;;;16.30;;
52934;SDS011;38802;50.198;19.796;2023-02-12T14:08:43;30.40;;;16.00;;
52934;SDS011;38802;50.198;19.796;2023-02-12T14:11:18;32.70;;;17.00;;
52934;SDS011;38802;50.198;19.796;2023-02-12T14:22:10;39.80;;;19.60;;
52934;SDS011;38802;50.198;19.796;2023-02-12T14:27:52;37.10;;;19.30;;
52934;SDS011;38802;50.198;19.796;2023-02-12T14:30:29;31.50;;;18.70;;
52934;SDS011;38802;50.198;19.796;2023-02-12T14:35:36;28.70;;;15.40;;
52934;SDS011;38802;50.198;19.796;2023-02-12T14:40:47;34.10;;;18.40;;
52934;SDS011;38802;50.198;19.796;2023-02-12T14:48:52;38.00;;;18.10;;
52934;SDS011;38802;50.198;19.796;2023-02-12T14:51:29;36.30;;;18.90;;
52934;SDS011;38802;50.198;19.796;2023-02-12T14:54:03;49.90;;;20.20;;
52934;SDS011;38802;50.198;19.796;2023-02-12T14:56:45;33.80;;;17.50;;
52934;SDS011;38802;50.198;19.796;2023-02-12T14:59:17;36.10;;;18.30;;
52934;SDS011;38802;50.198;19.796;2023-02-12T15:01:48;32.40;;;17.50;;
52934;SDS011;38802;50.198;19.796;2023-02-12T15:04:25;34.40;;;17.30;;
52934;SDS011;38802;50.198;19.796;2023-02-12T15:06:56;33.20;;;17.00;;
52934;SDS011;38802;50.198;19.796;2023-02-12T15:09:31;35.50;;;15.60;;
52934;SDS011;38802;50.198;19.796;2023-02-12T15:12:09;24.20;;;15.00;;
52934;SDS011;38802;50.198;19.796;2023-02-12T15:14:44;23.30;;;14.50;;
52934;SDS011;38802;50.198;19.796;2023-02-12T15:17:19;27.90;;;15.10;;
52934;SDS011;38802;50.198;19.796;2023-02-12T15:22:30;22.90;;;14.00;;
52934;SDS011;38802;50.198;19.796;2023-02-12T15:27:56;28.40;;;14.20;;
52934;SDS011;38802;50.198;19.796;2023-02-12T15:30:26;23.80;;;13.80;;
52934;SDS011;38802;50.198;19.796;2023-02-12T15:32:57;23.20;;;12.90;;
52934;SDS011;38802;50.198;19.796;2023-02-12T15:35:31;26.10;;;13.40;;
52934;SDS011;38802;50.198;19.796;2023-02-12T15:38:02;30.80;;;15.20;;
52934;SDS011;38802;50.198;19.796;2023-02-12T15:40:34;29.80;;;15.20;;
52934;SDS011;38802;50.198;19.796;2023-02-12T15:43:03;27.80;;;16.80;;
52934;SDS011;38802;50.198;19.796;2023-02-12T15:45:33;38.80;;;18.60;;
52934;SDS011;38802;50.198;19.796;2023-02-12T15:48:14;42.70;;;19.00;;
52934;SDS011;38802;50.198;19.796;2023-02-12T15:50:50;38.50;;;17.40;;
52934;SDS011;38802;50.198;19.796;2023-02-12T15:53:22;38.30;;;19.50;;
52934;SDS011;38802;50.198;19.796;2023-02-12T15:55:52;38.60;;;17.10;;
52934;SDS011;38802;50.198;19.796;2023-02-12T16:00:55;57.50;;;29.10;;
52934;SDS011;38802;50.198;19.796;2023-02-12T16:03:35;43.30;;;20.30;;
52934;SDS011;38802;50.198;19.796;2023-02-12T16:06:06;44.80;;;23.10;;
52934;SDS011;38802;50.198;19.796;2023-02-12T16:08:41;32.60;;;16.00;;
52934;SDS011;38802;50.198;19.796;2023-02-12T16:11:12;28.20;;;12.90;;
52934;SDS011;38802;50.198;19.796;2023-02-12T16:16:25;25.40;;;14.30;;
52934;SDS011;38802;50.198;19.796;2023-02-12T16:21:46;24.10;;;11.50;;
52934;SDS011;38802;50.198;19.796;2023-02-12T16:24:27;18.50;;;9.90;;
52934;SDS011;38802;50.198;19.796;2023-02-12T16:27:14;12.60;;;8.60;;
52934;SDS011;38802;50.198;19.796;2023-02-12T16:29:48;11.70;;;9.10;;
52934;SDS011;38802;50.198;19.796;2023-02-12T16:32:38;12.50;;;7.90;;
52934;SDS011;38802;50.198;19.796;2023-02-12T16:50:36;12.00;;;7.40;;
52934;SDS011;38802;50.198;19.796;2023-02-12T16:55:50;13.90;;;8.70;;
52934;SDS011;38802;50.198;19.796;2023-02-12T16:58:18;13.10;;;9.30;;
52934;SDS011;38802;50.198;19.796;2023-02-12T17:00:46;20.60;;;11.50;;
52934;SDS011;38802;50.198;19.796;2023-02-12T17:03:15;20.90;;;13.10;;
52934;SDS011;38802;50.198;19.796;2023-02-12T17:05:44;21.10;;;11.40;;
52934;SDS011;38802;50.198;19.796;2023-02-12T17:08:13;28.10;;;14.20;;
52934;SDS011;38802;50.198;19.796;2023-02-12T17:10:46;20.70;;;12.70;;
52934;SDS011;38802;50.198;19.796;2023-02-12T17:13:17;30.00;;;14.80;;
52934;SDS011;38802;50.198;19.796;2023-02-12T17:15:54;19.90;;;12.20;;
52934;SDS011;38802;50.198;19.796;2023-02-12T17:18:28;22.60;;;12.30;;
52934;SDS011;38802;50.198;19.796;2023-02-12T17:21:01;21.00;;;13.80;;
52934;SDS011;38802;50.198;19.796;2023-02-12T17:23:33;21.80;;;13.30;;
52934;SDS011;38802;50.198;19.796;2023-02-12T17:26:02;27.30;;;16.60;;
52934;SDS011;38802;50.198;19.796;2023-02-12T17:28:32;28.30;;;16.90;;
52934;SDS011;38802;50.198;19.796;2023-02-12T17:31:01;35.10;;;19.00;;
52934;SDS011;38802;50.198;19.796;2023-02-12T17:33:32;39.40;;;19.70;;
52934;SDS011;38802;50.198;19.796;2023-02-12T17:36:01;40.20;;;20.20;;
52934;SDS011;38802;50.198;19.796;2023-02-12T17:38:29;37.60;;;20.50;;
52934;SDS011;38802;50.198;19.796;2023-02-12T17:41:00;38.30;;;20.00;;
52934;SDS011;38802;50.198;19.796;2023-02-12T17:43:28;42.80;;;22.20;;
52934;SDS011;38802;50.198;19.796;2023-02-12T17:45:56;41.80;;;22.70;;
52934;SDS011;38802;50.198;19.796;2023-02-12T17:48:26;46.60;;;24.20;;
52934;SDS011;38802;50.198;19.796;2023-02-12T17:50:54;45.20;;;24.00;;
52934;SDS011;38802;50.198;19.796;2023-02-12T17:53:25;40.00;;;23.00;;
52934;SDS011;38802;50.198;19.796;2023-02-12T17:55:53;42.90;;;22.80;;
52934;SDS011;38802;50.198;19.796;2023-02-12T17:58:21;41.50;;;20.50;;
52934;SDS011;38802;50.198;19.796;2023-02-12T18:00:49;39.00;;;21.00;;
52934;SDS011;38802;50.198;19.796;2023-02-12T18:03:17;31.40;;;19.40;;
52934;SDS011;38802;50.198;19.796;2023-02-12T18:05:45;41.80;;;22.30;;
52934;SDS011;38802;50.198;19.796;2023-02-12T18:08:13;40.70;;;23.20;;
52934;SDS011;38802;50.198;19.796;2023-02-12T18:10:42;47.30;;;25.30;;
52934;SDS011;38802;50.198;19.796;2023-02-12T18:13:11;39.10;;;22.10;;
52934;SDS011;38802;50.198;19.796;2023-02-12T18:15:40;50.40;;;24.10;;
52934;SDS011;38802;50.198;19.796;2023-02-12T18:18:09;44.10;;;22.90;;
52934;SDS011;38802;50.198;19.796;2023-02-12T18:20:38;77.70;;;30.00;;
52934;SDS011;38802;50.198;19.796;2023-02-12T18:23:07;129.60;;;42.10;;
52934;SDS011;38802;50.198;19.796;2023-02-12T18:27:34;196.20;;;53.50;;
52934;SDS011;38802;50.198;19.796;2023-02-12T18:30:02;198.50;;;50.30;;